SLU weather

George F. L. Charles Airport
Castries, Castries, Saint Lucia

Public forecast

Using degrees Celsius for public forecast. Weather courtesy of forecast.io.

METAR (pilot weather report)

Retrieved 2019/09/19 00:00 UTC (2 hours ago):

TLPC 190000Z 12004KT 9999 FEW022 31/24 Q1010 NOSIG

TAF (pilot weather forecast)

Forecast is more than 12 hours old.

Retrieved 2019/09/18 00:12 UTC (1 day ago):

TAF TAF TLPC 182300Z 1900/1924 11008KT 9999 SCT025 TEMPO 1900/1912 SHRA FEW018TCU BKN022 BECMG 1916/1918 13006KT